Wednesday, January 17, 2018, 9:37 PM GMT
Back to Local

CWPE, Point Lepreau, N. B.

Location: , , Canada Lat: 45.067
Local Time: 9:37 PM GMT (21:37 GMT) Lon: -66.467
Time Zone: GMT Elev: 3 ft

Show me the last for .
Show Coded

Time T Td Feel RH Dir Speed Gust Alt SLP Vis Weather Sky Remarks
2018-01-17 21:00 32 31 20 98 90° 9 18 - 30.16 0 None
2018-01-17 20:00 32 31 23 97 90° 12 - - 30.20 0 None
2018-01-17 19:00 32 32 23 99 100° 12 - - 30.22 0 None
2018-01-17 18:00 32 32 24 100 100° 9 - - 30.25 0 None
2018-01-17 17:00 32 32 23 100 110° 10 - - 30.28 0 Pressure falling rapidly
2018-01-17 16:00 32 32 22 100 130° 13 - - 30.34 0 None
2018-01-17 15:00 31 31 26 100 80° 5 - - 30.38 0 None
2018-01-17 14:00 26 25 18 99 50° 7 - - 30.40 0 None
2018-01-17 13:00 23 23 15 98 40° 7 - - 30.42 0 None
2018-01-17 12:00 22 21 16 96 30° 5 - - 30.43 0 None
2018-01-17 11:00 21 21 - 97 10° 2 - - 30.44 0 None
2018-01-17 10:00 20 19 15 96 10° 3 - - 30.44 0 None
2018-01-17 09:00 19 18 14 94 10° 3 - - 30.44 0 None
2018-01-17 08:00 19 17 14 92 10° 3 - - 30.43 0 None
2018-01-17 07:00 19 16 14 86 20° 3 - - 30.44 0 None
2018-01-17 06:00 18 16 13 88 10° 3 - - 30.44 0 None
2018-01-17 05:00 19 15 12 84 30° 5 - - 30.46 0 None
2018-01-17 04:00 15 13 - 89 30° 2 - - 30.47 0 None
2018-01-17 03:00 13 11 - 90 350° 2 - - 30.49 0 None
2018-01-17 02:00 15 12 9 87 350° 3 - - 30.49 0 None
2018-01-17 01:00 15 13 8 90 350° 5 - - 30.49 0 None
2018-01-17 00:00 14 12 8 90 10° 3 - - 30.50 0 None
2018-01-16 23:00 16 13 - 87 330° 2 - - 30.49 0 None
2018-01-16 22:00 18 14 12 83 320° 3 - - 30.48 0 None

Support USWX by starting your Amazon purchase here.